sensor_id;sensor_type;location;lat;lon;timestamp;P1;durP1;ratioP1;P2;durP2;ratioP2
73550;SDS011;61816;53.582;10.096;2024-03-06T00:01:04;33.45;;;16.42;;
73550;SDS011;61816;53.582;10.096;2024-03-06T00:03:30;36.17;;;16.95;;
73550;SDS011;61816;53.582;10.096;2024-03-06T00:05:58;27.70;;;15.27;;
73550;SDS011;61816;53.582;10.096;2024-03-06T00:08:25;28.98;;;17.90;;
73550;SDS011;61816;53.582;10.096;2024-03-06T00:10:51;35.85;;;18.55;;
73550;SDS011;61816;53.582;10.096;2024-03-06T00:13:17;29.77;;;16.17;;
73550;SDS011;61816;53.582;10.096;2024-03-06T00:15:42;27.83;;;13.65;;
73550;SDS011;61816;53.582;10.096;2024-03-06T00:18:07;24.00;;;13.68;;
73550;SDS011;61816;53.582;10.096;2024-03-06T00:20:33;26.00;;;13.57;;
73550;SDS011;61816;53.582;10.096;2024-03-06T00:22:58;30.58;;;14.00;;
73550;SDS011;61816;53.582;10.096;2024-03-06T00:25:24;27.92;;;14.15;;
73550;SDS011;61816;53.582;10.096;2024-03-06T00:27:50;28.02;;;14.00;;
73550;SDS011;61816;53.582;10.096;2024-03-06T00:30:15;23.13;;;13.20;;
73550;SDS011;61816;53.582;10.096;2024-03-06T00:32:40;29.33;;;13.27;;
73550;SDS011;61816;53.582;10.096;2024-03-06T00:35:05;28.35;;;13.90;;
73550;SDS011;61816;53.582;10.096;2024-03-06T00:37:31;26.70;;;12.52;;
73550;SDS011;61816;53.582;10.096;2024-03-06T00:39:59;21.80;;;12.23;;
73550;SDS011;61816;53.582;10.096;2024-03-06T00:42:24;28.00;;;13.88;;
73550;SDS011;61816;53.582;10.096;2024-03-06T00:44:50;25.02;;;12.20;;
73550;SDS011;61816;53.582;10.096;2024-03-06T00:47:15;25.98;;;13.68;;
73550;SDS011;61816;53.582;10.096;2024-03-06T00:49:41;22.67;;;12.93;;
73550;SDS011;61816;53.582;10.096;2024-03-06T00:52:07;24.23;;;12.57;;
73550;SDS011;61816;53.582;10.096;2024-03-06T00:54:32;31.58;;;13.82;;
73550;SDS011;61816;53.582;10.096;2024-03-06T00:56:57;23.95;;;12.50;;
73550;SDS011;61816;53.582;10.096;2024-03-06T00:59:22;22.88;;;13.10;;
73550;SDS011;61816;53.582;10.096;2024-03-06T01:01:48;23.70;;;13.18;;
73550;SDS011;61816;53.582;10.096;2024-03-06T01:04:13;33.00;;;13.48;;
73550;SDS011;61816;53.582;10.096;2024-03-06T01:06:38;33.50;;;14.15;;
73550;SDS011;61816;53.582;10.096;2024-03-06T01:09:05;25.92;;;12.77;;
73550;SDS011;61816;53.582;10.096;2024-03-06T01:11:30;25.85;;;13.55;;
73550;SDS011;61816;53.582;10.096;2024-03-06T01:13:55;29.98;;;13.57;;
73550;SDS011;61816;53.582;10.096;2024-03-06T01:16:21;25.13;;;12.88;;
73550;SDS011;61816;53.582;10.096;2024-03-06T01:18:46;26.40;;;14.32;;
73550;SDS011;61816;53.582;10.096;2024-03-06T01:21:11;26.40;;;13.95;;
73550;SDS011;61816;53.582;10.096;2024-03-06T01:23:37;22.63;;;13.02;;
73550;SDS011;61816;53.582;10.096;2024-03-06T01:26:02;28.48;;;13.18;;
73550;SDS011;61816;53.582;10.096;2024-03-06T01:28:27;25.67;;;13.40;;
73550;SDS011;61816;53.582;10.096;2024-03-06T01:30:52;22.02;;;13.52;;
73550;SDS011;61816;53.582;10.096;2024-03-06T01:33:18;25.85;;;12.65;;
73550;SDS011;61816;53.582;10.096;2024-03-06T01:35:43;23.20;;;12.82;;
73550;SDS011;61816;53.582;10.096;2024-03-06T01:38:08;22.73;;;13.68;;
73550;SDS011;61816;53.582;10.096;2024-03-06T01:40:35;22.83;;;11.95;;
73550;SDS011;61816;53.582;10.096;2024-03-06T01:43:00;30.92;;;13.75;;
73550;SDS011;61816;53.582;10.096;2024-03-06T01:45:26;25.63;;;12.75;;
73550;SDS011;61816;53.582;10.096;2024-03-06T01:47:51;21.30;;;12.50;;
73550;SDS011;61816;53.582;10.096;2024-03-06T01:50:16;25.98;;;13.63;;
73550;SDS011;61816;53.582;10.096;2024-03-06T01:52:42;25.67;;;14.35;;
73550;SDS011;61816;53.582;10.096;2024-03-06T01:55:09;26.42;;;13.40;;
73550;SDS011;61816;53.582;10.096;2024-03-06T01:57:34;24.60;;;13.18;;
73550;SDS011;61816;53.582;10.096;2024-03-06T02:00:00;28.13;;;12.65;;
73550;SDS011;61816;53.582;10.096;2024-03-06T02:02:25;22.02;;;12.95;;
73550;SDS011;61816;53.582;10.096;2024-03-06T02:04:52;21.45;;;11.50;;
73550;SDS011;61816;53.582;10.096;2024-03-06T02:07:17;26.90;;;12.23;;
73550;SDS011;61816;53.582;10.096;2024-03-06T02:09:44;21.42;;;12.98;;
73550;SDS011;61816;53.582;10.096;2024-03-06T02:12:09;23.08;;;12.80;;
73550;SDS011;61816;53.582;10.096;2024-03-06T02:14:37;26.63;;;13.77;;
73550;SDS011;61816;53.582;10.096;2024-03-06T02:17:03;24.55;;;12.63;;
73550;SDS011;61816;53.582;10.096;2024-03-06T02:19:41;23.67;;;12.23;;
73550;SDS011;61816;53.582;10.096;2024-03-06T02:22:07;33.08;;;12.60;;
73550;SDS011;61816;53.582;10.096;2024-03-06T02:24:33;25.70;;;12.65;;
73550;SDS011;61816;53.582;10.096;2024-03-06T02:26:58;29.80;;;15.63;;
73550;SDS011;61816;53.582;10.096;2024-03-06T02:29:24;22.13;;;12.07;;
73550;SDS011;61816;53.582;10.096;2024-03-06T02:31:49;32.70;;;13.32;;
73550;SDS011;61816;53.582;10.096;2024-03-06T02:34:14;25.23;;;12.18;;
73550;SDS011;61816;53.582;10.096;2024-03-06T02:36:39;26.38;;;11.75;;
73550;SDS011;61816;53.582;10.096;2024-03-06T02:39:05;24.30;;;11.82;;
73550;SDS011;61816;53.582;10.096;2024-03-06T02:41:34;26.05;;;12.05;;
73550;SDS011;61816;53.582;10.096;2024-03-06T02:44:00;21.55;;;11.38;;
73550;SDS011;61816;53.582;10.096;2024-03-06T02:46:25;21.45;;;11.30;;
73550;SDS011;61816;53.582;10.096;2024-03-06T02:48:51;28.27;;;10.57;;
73550;SDS011;61816;53.582;10.096;2024-03-06T02:51:17;19.73;;;11.02;;
73550;SDS011;61816;53.582;10.096;2024-03-06T02:53:43;23.65;;;11.02;;
73550;SDS011;61816;53.582;10.096;2024-03-06T02:56:15;18.73;;;10.43;;
73550;SDS011;61816;53.582;10.096;2024-03-06T02:58:40;23.60;;;10.90;;
73550;SDS011;61816;53.582;10.096;2024-03-06T03:01:05;27.92;;;10.88;;
73550;SDS011;61816;53.582;10.096;2024-03-06T03:03:30;19.27;;;9.02;;
73550;SDS011;61816;53.582;10.096;2024-03-06T03:05:56;22.40;;;10.63;;
73550;SDS011;61816;53.582;10.096;2024-03-06T03:08:22;23.48;;;10.30;;
73550;SDS011;61816;53.582;10.096;2024-03-06T03:10:47;21.02;;;10.20;;
73550;SDS011;61816;53.582;10.096;2024-03-06T03:13:13;21.58;;;10.60;;
73550;SDS011;61816;53.582;10.096;2024-03-06T03:15:38;20.63;;;9.25;;
73550;SDS011;61816;53.582;10.096;2024-03-06T03:18:05;19.52;;;9.30;;
73550;SDS011;61816;53.582;10.096;2024-03-06T03:20:31;26.15;;;10.70;;
73550;SDS011;61816;53.582;10.096;2024-03-06T03:22:56;21.27;;;10.52;;
73550;SDS011;61816;53.582;10.096;2024-03-06T03:25:21;22.55;;;10.70;;
73550;SDS011;61816;53.582;10.096;2024-03-06T03:27:47;24.08;;;10.07;;
73550;SDS011;61816;53.582;10.096;2024-03-06T03:30:12;27.38;;;9.98;;
73550;SDS011;61816;53.582;10.096;2024-03-06T03:32:37;26.83;;;11.10;;
73550;SDS011;61816;53.582;10.096;2024-03-06T03:35:06;25.42;;;11.32;;
73550;SDS011;61816;53.582;10.096;2024-03-06T03:37:35;25.80;;;10.98;;
73550;SDS011;61816;53.582;10.096;2024-03-06T03:40:00;19.35;;;9.77;;
73550;SDS011;61816;53.582;10.096;2024-03-06T03:42:25;18.85;;;10.32;;
73550;SDS011;61816;53.582;10.096;2024-03-06T03:44:53;24.60;;;10.75;;
73550;SDS011;61816;53.582;10.096;2024-03-06T03:47:18;22.08;;;10.45;;
73550;SDS011;61816;53.582;10.096;2024-03-06T03:49:44;19.35;;;10.18;;
73550;SDS011;61816;53.582;10.096;2024-03-06T03:52:09;26.80;;;10.57;;
73550;SDS011;61816;53.582;10.096;2024-03-06T03:54:34;22.27;;;11.07;;
73550;SDS011;61816;53.582;10.096;2024-03-06T03:57:00;17.40;;;9.90;;
73550;SDS011;61816;53.582;10.096;2024-03-06T03:59:25;26.38;;;11.13;;
73550;SDS011;61816;53.582;10.096;2024-03-06T04:01:51;24.15;;;10.23;;
73550;SDS011;61816;53.582;10.096;2024-03-06T04:04:16;23.02;;;10.75;;
73550;SDS011;61816;53.582;10.096;2024-03-06T04:06:42;17.45;;;10.52;;
73550;SDS011;61816;53.582;10.096;2024-03-06T04:09:07;16.08;;;10.02;;
73550;SDS011;61816;53.582;10.096;2024-03-06T04:11:35;24.77;;;10.52;;
73550;SDS011;61816;53.582;10.096;2024-03-06T04:14:02;24.17;;;10.80;;
73550;SDS011;61816;53.582;10.096;2024-03-06T04:16:29;21.40;;;9.75;;
73550;SDS011;61816;53.582;10.096;2024-03-06T04:18:55;26.35;;;10.35;;
73550;SDS011;61816;53.582;10.096;2024-03-06T04:21:20;21.73;;;12.35;;
73550;SDS011;61816;53.582;10.096;2024-03-06T04:23:45;19.95;;;11.27;;
73550;SDS011;61816;53.582;10.096;2024-03-06T04:26:10;24.55;;;10.02;;
73550;SDS011;61816;53.582;10.096;2024-03-06T04:28:36;17.83;;;10.68;;
73550;SDS011;61816;53.582;10.096;2024-03-06T04:31:01;16.77;;;10.05;;
73550;SDS011;61816;53.582;10.096;2024-03-06T04:33:26;18.55;;;10.02;;
73550;SDS011;61816;53.582;10.096;2024-03-06T04:35:51;23.10;;;11.35;;
73550;SDS011;61816;53.582;10.096;2024-03-06T04:38:17;21.00;;;9.63;;
73550;SDS011;61816;53.582;10.096;2024-03-06T04:40:42;20.67;;;10.55;;
73550;SDS011;61816;53.582;10.096;2024-03-06T04:43:07;20.65;;;9.95;;
73550;SDS011;61816;53.582;10.096;2024-03-06T04:45:35;16.90;;;9.70;;
73550;SDS011;61816;53.582;10.096;2024-03-06T04:48:00;20.95;;;10.93;;
73550;SDS011;61816;53.582;10.096;2024-03-06T04:50:26;18.55;;;9.30;;
73550;SDS011;61816;53.582;10.096;2024-03-06T04:52:52;27.80;;;9.35;;
73550;SDS011;61816;53.582;10.096;2024-03-06T04:55:21;16.13;;;9.38;;
73550;SDS011;61816;53.582;10.096;2024-03-06T04:57:47;16.80;;;9.85;;
73550;SDS011;61816;53.582;10.096;2024-03-06T05:00:16;19.50;;;9.48;;
73550;SDS011;61816;53.582;10.096;2024-03-06T05:02:43;18.85;;;9.75;;
73550;SDS011;61816;53.582;10.096;2024-03-06T05:05:08;20.42;;;10.02;;
73550;SDS011;61816;53.582;10.096;2024-03-06T05:07:34;20.02;;;10.13;;
73550;SDS011;61816;53.582;10.096;2024-03-06T05:10:01;22.67;;;9.25;;
73550;SDS011;61816;53.582;10.096;2024-03-06T05:12:27;16.88;;;8.93;;
73550;SDS011;61816;53.582;10.096;2024-03-06T05:14:53;17.13;;;8.10;;
73550;SDS011;61816;53.582;10.096;2024-03-06T05:17:18;16.33;;;9.75;;
73550;SDS011;61816;53.582;10.096;2024-03-06T05:19:44;20.27;;;10.48;;
73550;SDS011;61816;53.582;10.096;2024-03-06T05:22:09;19.00;;;9.63;;
73550;SDS011;61816;53.582;10.096;2024-03-06T05:24:36;18.92;;;10.50;;
73550;SDS011;61816;53.582;10.096;2024-03-06T05:27:02;20.73;;;9.50;;
73550;SDS011;61816;53.582;10.096;2024-03-06T05:29:27;18.48;;;9.05;;
73550;SDS011;61816;53.582;10.096;2024-03-06T05:31:52;19.05;;;9.20;;
73550;SDS011;61816;53.582;10.096;2024-03-06T05:34:17;24.80;;;9.60;;
73550;SDS011;61816;53.582;10.096;2024-03-06T05:36:43;15.27;;;9.70;;
73550;SDS011;61816;53.582;10.096;2024-03-06T05:39:09;19.70;;;10.02;;
73550;SDS011;61816;53.582;10.096;2024-03-06T05:41:37;20.20;;;11.15;;
73550;SDS011;61816;53.582;10.096;2024-03-06T05:44:06;20.98;;;10.23;;
73550;SDS011;61816;53.582;10.096;2024-03-06T05:46:31;27.67;;;11.85;;
73550;SDS011;61816;53.582;10.096;2024-03-06T05:48:56;23.25;;;10.85;;
73550;SDS011;61816;53.582;10.096;2024-03-06T05:51:24;18.33;;;10.27;;
73550;SDS011;61816;53.582;10.096;2024-03-06T05:53:50;22.77;;;10.32;;
73550;SDS011;61816;53.582;10.096;2024-03-06T05:56:16;20.35;;;11.18;;
73550;SDS011;61816;53.582;10.096;2024-03-06T05:58:42;26.75;;;14.35;;
73550;SDS011;61816;53.582;10.096;2024-03-06T06:01:10;25.08;;;10.55;;
73550;SDS011;61816;53.582;10.096;2024-03-06T06:03:35;38.33;;;11.73;;
73550;SDS011;61816;53.582;10.096;2024-03-06T06:06:01;22.13;;;11.10;;
73550;SDS011;61816;53.582;10.096;2024-03-06T06:08:26;24.38;;;11.60;;
73550;SDS011;61816;53.582;10.096;2024-03-06T06:10:51;22.52;;;10.95;;
73550;SDS011;61816;53.582;10.096;2024-03-06T06:13:17;19.50;;;10.48;;
73550;SDS011;61816;53.582;10.096;2024-03-06T06:15:42;26.10;;;12.02;;
73550;SDS011;61816;53.582;10.096;2024-03-06T06:18:08;24.15;;;10.75;;
73550;SDS011;61816;53.582;10.096;2024-03-06T06:20:33;30.10;;;12.45;;
73550;SDS011;61816;53.582;10.096;2024-03-06T06:22:58;19.05;;;9.75;;
73550;SDS011;61816;53.582;10.096;2024-03-06T06:25:24;24.30;;;10.05;;
73550;SDS011;61816;53.582;10.096;2024-03-06T06:27:49;19.42;;;10.27;;
73550;SDS011;61816;53.582;10.096;2024-03-06T06:30:14;22.58;;;10.23;;
73550;SDS011;61816;53.582;10.096;2024-03-06T06:32:40;18.30;;;11.18;;
73550;SDS011;61816;53.582;10.096;2024-03-06T06:35:06;19.27;;;10.57;;
73550;SDS011;61816;53.582;10.096;2024-03-06T06:37:31;28.10;;;11.43;;
73550;SDS011;61816;53.582;10.096;2024-03-06T06:39:57;27.52;;;12.63;;
73550;SDS011;61816;53.582;10.096;2024-03-06T06:42:22;21.88;;;12.57;;
73550;SDS011;61816;53.582;10.096;2024-03-06T06:44:47;28.13;;;12.40;;
73550;SDS011;61816;53.582;10.096;2024-03-06T06:47:12;26.38;;;12.95;;
73550;SDS011;61816;53.582;10.096;2024-03-06T06:49:38;22.20;;;12.48;;
73550;SDS011;61816;53.582;10.096;2024-03-06T06:52:03;25.17;;;11.65;;
73550;SDS011;61816;53.582;10.096;2024-03-06T06:54:28;20.02;;;11.15;;
73550;SDS011;61816;53.582;10.096;2024-03-06T06:56:54;25.30;;;12.43;;
73550;SDS011;61816;53.582;10.096;2024-03-06T06:59:19;24.60;;;12.10;;
73550;SDS011;61816;53.582;10.096;2024-03-06T07:01:45;32.22;;;12.43;;
73550;SDS011;61816;53.582;10.096;2024-03-06T07:04:11;20.08;;;11.50;;
73550;SDS011;61816;53.582;10.096;2024-03-06T07:06:36;28.35;;;11.55;;
73550;SDS011;61816;53.582;10.096;2024-03-06T07:09:01;19.95;;;11.23;;
73550;SDS011;61816;53.582;10.096;2024-03-06T07:11:27;29.73;;;12.40;;
73550;SDS011;61816;53.582;10.096;2024-03-06T07:13:52;33.13;;;12.45;;
73550;SDS011;61816;53.582;10.096;2024-03-06T07:16:18;20.67;;;11.45;;
73550;SDS011;61816;53.582;10.096;2024-03-06T07:18:44;21.95;;;10.82;;
73550;SDS011;61816;53.582;10.096;2024-03-06T07:21:09;27.67;;;11.00;;
73550;SDS011;61816;53.582;10.096;2024-03-06T07:23:34;17.73;;;10.15;;
73550;SDS011;61816;53.582;10.096;2024-03-06T07:26:00;16.88;;;10.45;;
73550;SDS011;61816;53.582;10.096;2024-03-06T07:28:25;19.67;;;10.35;;
73550;SDS011;61816;53.582;10.096;2024-03-06T07:30:51;23.73;;;10.63;;
73550;SDS011;61816;53.582;10.096;2024-03-06T07:33:34;19.00;;;10.25;;
73550;SDS011;61816;53.582;10.096;2024-03-06T07:36:03;19.45;;;11.13;;
73550;SDS011;61816;53.582;10.096;2024-03-06T07:38:28;17.73;;;11.02;;
73550;SDS011;61816;53.582;10.096;2024-03-06T07:40:53;18.70;;;9.25;;
73550;SDS011;61816;53.582;10.096;2024-03-06T07:43:19;17.23;;;9.93;;
73550;SDS011;61816;53.582;10.096;2024-03-06T07:45:44;18.00;;;8.90;;
73550;SDS011;61816;53.582;10.096;2024-03-06T07:48:09;19.35;;;9.70;;
73550;SDS011;61816;53.582;10.096;2024-03-06T07:50:34;18.88;;;9.77;;
73550;SDS011;61816;53.582;10.096;2024-03-06T07:53:00;14.77;;;8.68;;
73550;SDS011;61816;53.582;10.096;2024-03-06T07:55:25;16.25;;;8.48;;
73550;SDS011;61816;53.582;10.096;2024-03-06T07:57:50;18.52;;;9.27;;
73550;SDS011;61816;53.582;10.096;2024-03-06T08:00:16;13.07;;;8.52;;
73550;SDS011;61816;53.582;10.096;2024-03-06T08:02:44;18.10;;;9.40;;
73550;SDS011;61816;53.582;10.096;2024-03-06T08:05:15;17.85;;;8.68;;
73550;SDS011;61816;53.582;10.096;2024-03-06T08:07:40;14.90;;;8.82;;
73550;SDS011;61816;53.582;10.096;2024-03-06T08:10:10;18.48;;;7.63;;
73550;SDS011;61816;53.582;10.096;2024-03-06T08:12:38;24.20;;;8.18;;
73550;SDS011;61816;53.582;10.096;2024-03-06T08:15:03;18.02;;;8.25;;
73550;SDS011;61816;53.582;10.096;2024-03-06T08:17:29;17.50;;;9.05;;
73550;SDS011;61816;53.582;10.096;2024-03-06T08:19:54;14.35;;;9.02;;
73550;SDS011;61816;53.582;10.096;2024-03-06T08:22:20;12.88;;;8.27;;
73550;SDS011;61816;53.582;10.096;2024-03-06T08:24:45;13.00;;;7.20;;
73550;SDS011;61816;53.582;10.096;2024-03-06T08:27:10;23.13;;;7.78;;
73550;SDS011;61816;53.582;10.096;2024-03-06T08:29:36;12.63;;;8.18;;
73550;SDS011;61816;53.582;10.096;2024-03-06T08:32:01;16.95;;;7.72;;
73550;SDS011;61816;53.582;10.096;2024-03-06T08:34:26;15.90;;;8.07;;
73550;SDS011;61816;53.582;10.096;2024-03-06T08:36:51;18.95;;;8.65;;
73550;SDS011;61816;53.582;10.096;2024-03-06T08:39:18;14.73;;;7.82;;
73550;SDS011;61816;53.582;10.096;2024-03-06T08:41:43;12.73;;;7.00;;
73550;SDS011;61816;53.582;10.096;2024-03-06T08:44:09;14.27;;;8.10;;
73550;SDS011;61816;53.582;10.096;2024-03-06T08:46:34;18.40;;;7.90;;
73550;SDS011;61816;53.582;10.096;2024-03-06T08:48:59;14.07;;;7.72;;
73550;SDS011;61816;53.582;10.096;2024-03-06T08:51:24;17.77;;;7.55;;
73550;SDS011;61816;53.582;10.096;2024-03-06T08:53:50;11.05;;;6.82;;
73550;SDS011;61816;53.582;10.096;2024-03-06T08:56:15;13.07;;;7.38;;
73550;SDS011;61816;53.582;10.096;2024-03-06T08:58:40;11.60;;;7.68;;
73550;SDS011;61816;53.582;10.096;2024-03-06T09:01:06;12.32;;;7.88;;
73550;SDS011;61816;53.582;10.096;2024-03-06T09:03:31;12.18;;;6.93;;
73550;SDS011;61816;53.582;10.096;2024-03-06T09:05:56;20.27;;;8.52;;
73550;SDS011;61816;53.582;10.096;2024-03-06T09:08:22;11.55;;;6.85;;
73550;SDS011;61816;53.582;10.096;2024-03-06T09:10:47;14.05;;;7.30;;
73550;SDS011;61816;53.582;10.096;2024-03-06T09:13:12;14.43;;;8.15;;
73550;SDS011;61816;53.582;10.096;2024-03-06T09:15:38;14.98;;;6.60;;
73550;SDS011;61816;53.582;10.096;2024-03-06T09:18:03;21.30;;;6.95;;
73550;SDS011;61816;53.582;10.096;2024-03-06T09:20:28;13.88;;;6.22;;
73550;SDS011;61816;53.582;10.096;2024-03-06T09:22:55;11.52;;;7.00;;
73550;SDS011;61816;53.582;10.096;2024-03-06T09:25:22;16.98;;;7.20;;
73550;SDS011;61816;53.582;10.096;2024-03-06T09:27:47;11.88;;;7.05;;
73550;SDS011;61816;53.582;10.096;2024-03-06T09:30:13;12.23;;;7.15;;
73550;SDS011;61816;53.582;10.096;2024-03-06T09:32:38;11.93;;;7.28;;
73550;SDS011;61816;53.582;10.096;2024-03-06T09:35:05;13.55;;;7.35;;
73550;SDS011;61816;53.582;10.096;2024-03-06T09:37:31;15.57;;;7.07;;
73550;SDS011;61816;53.582;10.096;2024-03-06T09:39:56;15.48;;;7.55;;
73550;SDS011;61816;53.582;10.096;2024-03-06T09:42:21;18.88;;;7.55;;
73550;SDS011;61816;53.582;10.096;2024-03-06T09:44:48;17.25;;;7.28;;
73550;SDS011;61816;53.582;10.096;2024-03-06T09:47:13;15.20;;;7.60;;
73550;SDS011;61816;53.582;10.096;2024-03-06T09:49:41;15.52;;;8.15;;
73550;SDS011;61816;53.582;10.096;2024-03-06T09:52:08;13.35;;;8.68;;
73550;SDS011;61816;53.582;10.096;2024-03-06T09:54:33;12.85;;;8.15;;
73550;SDS011;61816;53.582;10.096;2024-03-06T09:56:58;14.68;;;8.27;;
73550;SDS011;61816;53.582;10.096;2024-03-06T09:59:24;13.70;;;8.32;;
73550;SDS011;61816;53.582;10.096;2024-03-06T10:04:19;25.08;;;8.43;;
73550;SDS011;61816;53.582;10.096;2024-03-06T10:06:45;25.92;;;9.80;;
73550;SDS011;61816;53.582;10.096;2024-03-06T10:09:11;22.13;;;8.25;;
73550;SDS011;61816;53.582;10.096;2024-03-06T10:11:39;13.63;;;8.88;;
73550;SDS011;61816;53.582;10.096;2024-03-06T10:14:05;15.02;;;8.70;;
73550;SDS011;61816;53.582;10.096;2024-03-06T10:16:30;23.38;;;9.82;;
73550;SDS011;61816;53.582;10.096;2024-03-06T10:18:56;16.58;;;9.65;;
73550;SDS011;61816;53.582;10.096;2024-03-06T10:21:31;16.25;;;9.10;;
73550;SDS011;61816;53.582;10.096;2024-03-06T10:24:00;19.73;;;9.90;;
73550;SDS011;61816;53.582;10.096;2024-03-06T10:26:25;17.63;;;10.15;;
73550;SDS011;61816;53.582;10.096;2024-03-06T10:28:50;17.00;;;8.95;;
73550;SDS011;61816;53.582;10.096;2024-03-06T10:31:26;17.42;;;8.93;;
73550;SDS011;61816;53.582;10.096;2024-03-06T10:33:51;23.20;;;11.45;;
73550;SDS011;61816;53.582;10.096;2024-03-06T10:36:18;18.60;;;10.32;;
73550;SDS011;61816;53.582;10.096;2024-03-06T10:38:43;15.50;;;10.05;;
73550;SDS011;61816;53.582;10.096;2024-03-06T10:41:09;16.20;;;9.95;;
73550;SDS011;61816;53.582;10.096;2024-03-06T10:43:38;15.93;;;10.13;;
73550;SDS011;61816;53.582;10.096;2024-03-06T10:46:06;24.88;;;10.93;;
73550;SDS011;61816;53.582;10.096;2024-03-06T10:48:31;17.73;;;10.48;;
73550;SDS011;61816;53.582;10.096;2024-03-06T10:50:57;16.30;;;9.60;;
73550;SDS011;61816;53.582;10.096;2024-03-06T10:53:22;18.10;;;10.40;;
73550;SDS011;61816;53.582;10.096;2024-03-06T10:55:51;23.00;;;10.18;;
73550;SDS011;61816;53.582;10.096;2024-03-06T10:58:16;14.57;;;9.18;;
73550;SDS011;61816;53.582;10.096;2024-03-06T11:00:47;17.33;;;8.90;;
73550;SDS011;61816;53.582;10.096;2024-03-06T11:03:12;18.83;;;10.27;;
73550;SDS011;61816;53.582;10.096;2024-03-06T11:05:41;19.85;;;10.13;;
73550;SDS011;61816;53.582;10.096;2024-03-06T11:08:07;24.67;;;11.07;;
73550;SDS011;61816;53.582;10.096;2024-03-06T11:10:33;17.35;;;10.20;;
73550;SDS011;61816;53.582;10.096;2024-03-06T11:12:58;16.38;;;9.70;;
73550;SDS011;61816;53.582;10.096;2024-03-06T11:15:24;28.50;;;10.95;;
73550;SDS011;61816;53.582;10.096;2024-03-06T11:17:49;18.02;;;9.57;;
73550;SDS011;61816;53.582;10.096;2024-03-06T11:20:17;22.92;;;9.50;;
73550;SDS011;61816;53.582;10.096;2024-03-06T11:28:05;33.03;;;10.48;;
73550;SDS011;61816;53.582;10.096;2024-03-06T11:30:30;20.05;;;10.20;;
73550;SDS011;61816;53.582;10.096;2024-03-06T11:32:59;16.08;;;9.88;;
73550;SDS011;61816;53.582;10.096;2024-03-06T11:35:27;15.55;;;9.75;;
73550;SDS011;61816;53.582;10.096;2024-03-06T11:37:53;26.42;;;10.68;;
73550;SDS011;61816;53.582;10.096;2024-03-06T11:40:25;18.85;;;10.23;;
73550;SDS011;61816;53.582;10.096;2024-03-06T11:42:50;22.00;;;10.02;;
73550;SDS011;61816;53.582;10.096;2024-03-06T11:45:16;15.52;;;9.20;;
73550;SDS011;61816;53.582;10.096;2024-03-06T11:47:57;23.30;;;11.18;;
73550;SDS011;61816;53.582;10.096;2024-03-06T11:50:24;14.10;;;8.55;;
73550;SDS011;61816;53.582;10.096;2024-03-06T11:58:23;15.35;;;8.93;;
73550;SDS011;61816;53.582;10.096;2024-03-06T12:00:54;16.95;;;9.02;;
73550;SDS011;61816;53.582;10.096;2024-03-06T12:03:29;18.10;;;8.85;;
73550;SDS011;61816;53.582;10.096;2024-03-06T12:05:59;15.13;;;8.50;;
73550;SDS011;61816;53.582;10.096;2024-03-06T12:08:33;18.63;;;8.88;;
73550;SDS011;61816;53.582;10.096;2024-03-06T12:11:07;15.55;;;9.20;;
73550;SDS011;61816;53.582;10.096;2024-03-06T12:13:56;19.52;;;10.60;;
73550;SDS011;61816;53.582;10.096;2024-03-06T12:16:22;18.13;;;8.77;;
73550;SDS011;61816;53.582;10.096;2024-03-06T12:18:54;25.88;;;8.80;;
73550;SDS011;61816;53.582;10.096;2024-03-06T12:21:19;16.55;;;9.60;;
73550;SDS011;61816;53.582;10.096;2024-03-06T12:23:52;17.73;;;10.68;;
73550;SDS011;61816;53.582;10.096;2024-03-06T12:26:43;18.23;;;9.63;;
73550;SDS011;61816;53.582;10.096;2024-03-06T12:29:28;27.88;;;9.95;;
73550;SDS011;61816;53.582;10.096;2024-03-06T12:32:02;18.63;;;9.40;;
73550;SDS011;61816;53.582;10.096;2024-03-06T12:34:36;21.55;;;9.70;;
73550;SDS011;61816;53.582;10.096;2024-03-06T12:37:12;22.70;;;9.35;;
73550;SDS011;61816;53.582;10.096;2024-03-06T12:39:40;26.48;;;9.98;;
73550;SDS011;61816;53.582;10.096;2024-03-06T12:42:14;23.30;;;11.30;;
73550;SDS011;61816;53.582;10.096;2024-03-06T12:45:09;25.10;;;10.48;;
73550;SDS011;61816;53.582;10.096;2024-03-06T12:47:47;21.58;;;9.10;;
73550;SDS011;61816;53.582;10.096;2024-03-06T12:50:18;31.35;;;9.68;;
73550;SDS011;61816;53.582;10.096;2024-03-06T12:52:45;20.58;;;9.15;;
73550;SDS011;61816;53.582;10.096;2024-03-06T12:55:33;19.05;;;9.38;;
73550;SDS011;61816;53.582;10.096;2024-03-06T12:58:19;25.65;;;9.13;;
73550;SDS011;61816;53.582;10.096;2024-03-06T13:00:59;18.48;;;9.38;;
73550;SDS011;61816;53.582;10.096;2024-03-06T13:03:32;18.98;;;9.32;;
73550;SDS011;61816;53.582;10.096;2024-03-06T13:06:03;20.10;;;8.90;;
73550;SDS011;61816;53.582;10.096;2024-03-06T13:08:47;24.88;;;10.70;;
73550;SDS011;61816;53.582;10.096;2024-03-06T13:11:13;20.63;;;10.10;;
73550;SDS011;61816;53.582;10.096;2024-03-06T13:13:47;14.75;;;9.07;;
73550;SDS011;61816;53.582;10.096;2024-03-06T13:16:13;13.80;;;8.73;;
73550;SDS011;61816;53.582;10.096;2024-03-06T13:18:38;23.50;;;9.43;;
73550;SDS011;61816;53.582;10.096;2024-03-06T13:21:03;17.13;;;9.18;;
73550;SDS011;61816;53.582;10.096;2024-03-06T13:23:29;20.17;;;9.93;;
73550;SDS011;61816;53.582;10.096;2024-03-06T13:25:54;15.88;;;9.05;;
73550;SDS011;61816;53.582;10.096;2024-03-06T13:28:19;45.10;;;10.60;;
73550;SDS011;61816;53.582;10.096;2024-03-06T13:30:46;18.98;;;9.75;;
73550;SDS011;61816;53.582;10.096;2024-03-06T13:33:11;21.58;;;8.68;;
73550;SDS011;61816;53.582;10.096;2024-03-06T13:35:37;14.60;;;8.35;;
73550;SDS011;61816;53.582;10.096;2024-03-06T13:38:02;15.57;;;8.07;;
73550;SDS011;61816;53.582;10.096;2024-03-06T13:40:28;16.42;;;8.40;;
73550;SDS011;61816;53.582;10.096;2024-03-06T13:42:53;21.55;;;8.63;;
73550;SDS011;61816;53.582;10.096;2024-03-06T13:45:19;18.00;;;8.20;;
73550;SDS011;61816;53.582;10.096;2024-03-06T13:47:44;16.83;;;7.35;;
73550;SDS011;61816;53.582;10.096;2024-03-06T13:50:10;13.60;;;7.80;;
73550;SDS011;61816;53.582;10.096;2024-03-06T13:52:36;16.33;;;7.13;;
73550;SDS011;61816;53.582;10.096;2024-03-06T13:55:01;13.73;;;7.95;;
73550;SDS011;61816;53.582;10.096;2024-03-06T13:57:32;24.00;;;8.77;;
73550;SDS011;61816;53.582;10.096;2024-03-06T14:00:09;19.60;;;8.25;;
73550;SDS011;61816;53.582;10.096;2024-03-06T14:02:42;13.70;;;8.07;;
73550;SDS011;61816;53.582;10.096;2024-03-06T14:05:07;15.43;;;8.13;;
73550;SDS011;61816;53.582;10.096;2024-03-06T14:07:33;15.23;;;7.78;;
73550;SDS011;61816;53.582;10.096;2024-03-06T14:09:58;16.65;;;9.30;;
73550;SDS011;61816;53.582;10.096;2024-03-06T14:12:24;13.52;;;8.23;;
73550;SDS011;61816;53.582;10.096;2024-03-06T14:14:49;22.70;;;12.05;;
73550;SDS011;61816;53.582;10.096;2024-03-06T14:17:14;17.13;;;8.10;;
73550;SDS011;61816;53.582;10.096;2024-03-06T14:19:39;16.60;;;7.80;;
73550;SDS011;61816;53.582;10.096;2024-03-06T14:22:06;16.42;;;8.63;;
73550;SDS011;61816;53.582;10.096;2024-03-06T14:24:31;15.30;;;8.57;;